Webcam

2020/10/22 05:20 EBBR 220520Z 22007KT CAVOK 14/11 Q1010 NOSIG

Webcam

--- Refresh now ---